Pinehurst, Georgia
Current Conditions -  °F | °C
As of 12:35 PM on Sunday 23 Nov 2014 (Local Time) from KCKF Reporting Station
Overcast Overcast  
Wind Chill: 68°   Ceiling: 400
Heat Index: 68°   Visibility: 7mi
Dew Point: 66°   Wind: 8mph
Humidity: 94%   Direction: 150°SSE
Pressure: 29.86"   Gusts: NA
Location:  32.2°N, 83.76°W
Report Text: KCKF 231735Z AUTO 15007KT 7SM OVC004 20/19 A2986 RMK AO2 LTG DSNT N T02000190
Loading
Personal Weather Stations






























Interactive Weather Map New forecast layout! Learn more

10-Day Weather Forecast

Advertisements
Track Severe Weather on mobile